sensor_id;sensor_type;location;lat;lon;timestamp;P1;durP1;ratioP1;P2;durP2;ratioP2
12912;SDS011;6524;51.368;11.984;2023-06-14T10:26:27;4.75;;;3.92;;
12912;SDS011;6524;51.368;11.984;2023-06-14T10:36:59;3.95;;;3.65;;
12912;SDS011;6524;51.368;11.984;2023-06-14T10:42:13;3.65;;;3.35;;
12912;SDS011;6524;51.368;11.984;2023-06-14T10:47:25;3.90;;;3.60;;
12912;SDS011;6524;51.368;11.984;2023-06-14T10:52:33;4.65;;;3.88;;
12912;SDS011;6524;51.368;11.984;2023-06-14T10:57:35;4.85;;;3.60;;
12912;SDS011;6524;51.368;11.984;2023-06-14T11:13:18;3.53;;;3.22;;
12912;SDS011;6524;51.368;11.984;2023-06-14T11:18:19;7.07;;;3.50;;
12912;SDS011;6524;51.368;11.984;2023-06-14T11:23:24;3.67;;;3.38;;
12912;SDS011;6524;51.368;11.984;2023-06-14T11:28:35;3.75;;;3.45;;
12912;SDS011;6524;51.368;11.984;2023-06-14T11:33:37;3.95;;;3.40;;
12912;SDS011;6524;51.368;11.984;2023-06-14T11:38:37;4.00;;;3.17;;
12912;SDS011;6524;51.368;11.984;2023-06-14T11:43:41;3.63;;;2.90;;
12912;SDS011;6524;51.368;11.984;2023-06-14T11:48:48;3.33;;;2.92;;
12912;SDS011;6524;51.368;11.984;2023-06-14T11:53:48;3.40;;;3.10;;
12912;SDS011;6524;51.368;11.984;2023-06-14T11:58:49;2.90;;;2.70;;
12912;SDS011;6524;51.368;11.984;2023-06-14T12:03:52;3.65;;;3.08;;
12912;SDS011;6524;51.368;11.984;2023-06-14T12:08:55;3.70;;;3.40;;
12912;SDS011;6524;51.368;11.984;2023-06-14T12:13:56;3.30;;;3.00;;
12912;SDS011;6524;51.368;11.984;2023-06-14T12:18:59;3.50;;;3.20;;
12912;SDS011;6524;51.368;11.984;2023-06-14T12:24:03;3.22;;;2.97;;
12912;SDS011;6524;51.368;11.984;2023-06-14T12:29:04;4.03;;;3.10;;
12912;SDS011;6524;51.368;11.984;2023-06-14T12:34:07;3.30;;;3.00;;
12912;SDS011;6524;51.368;11.984;2023-06-14T12:39:08;4.10;;;3.70;;
12912;SDS011;6524;51.368;11.984;2023-06-14T12:44:09;3.58;;;3.28;;
12912;SDS011;6524;51.368;11.984;2023-06-14T12:49:11;3.78;;;3.33;;
12912;SDS011;6524;51.368;11.984;2023-06-14T12:54:14;4.88;;;3.53;;
12912;SDS011;6524;51.368;11.984;2023-06-14T12:59:14;3.92;;;3.63;;
12912;SDS011;6524;51.368;11.984;2023-06-14T13:04:15;4.40;;;3.70;;
12912;SDS011;6524;51.368;11.984;2023-06-14T13:09:16;4.63;;;3.55;;
12912;SDS011;6524;51.368;11.984;2023-06-14T13:14:17;4.20;;;3.80;;
12912;SDS011;6524;51.368;11.984;2023-06-14T13:19:17;4.07;;;3.67;;
12912;SDS011;6524;51.368;11.984;2023-06-14T13:24:18;4.28;;;3.70;;
12912;SDS011;6524;51.368;11.984;2023-06-14T13:29:18;4.22;;;3.80;;
12912;SDS011;6524;51.368;11.984;2023-06-14T13:34:19;3.95;;;3.63;;
12912;SDS011;6524;51.368;11.984;2023-06-14T13:39:21;4.03;;;3.63;;
12912;SDS011;6524;51.368;11.984;2023-06-14T13:44:21;4.60;;;4.20;;
12912;SDS011;6524;51.368;11.984;2023-06-14T13:49:22;4.00;;;3.70;;
12912;SDS011;6524;51.368;11.984;2023-06-14T13:54:23;4.75;;;4.20;;
12912;SDS011;6524;51.368;11.984;2023-06-14T13:59:23;4.65;;;4.25;;
12912;SDS011;6524;51.368;11.984;2023-06-14T14:04:24;5.00;;;4.60;;
12912;SDS011;6524;51.368;11.984;2023-06-14T14:09:25;4.60;;;4.20;;
12912;SDS011;6524;51.368;11.984;2023-06-14T14:14:27;5.43;;;4.32;;
12912;SDS011;6524;51.368;11.984;2023-06-14T14:19:30;5.18;;;4.40;;
12912;SDS011;6524;51.368;11.984;2023-06-14T14:24:31;4.95;;;4.55;;
12912;SDS011;6524;51.368;11.984;2023-06-14T14:29:37;4.90;;;4.40;;
12912;SDS011;6524;51.368;11.984;2023-06-14T14:34:40;4.95;;;4.45;;
12912;SDS011;6524;51.368;11.984;2023-06-14T14:39:41;4.78;;;4.45;;
12912;SDS011;6524;51.368;11.984;2023-06-14T14:44:44;5.35;;;4.53;;
12912;SDS011;6524;51.368;11.984;2023-06-14T14:49:51;5.10;;;4.60;;
12912;SDS011;6524;51.368;11.984;2023-06-14T14:54:52;5.05;;;4.40;;
12912;SDS011;6524;51.368;11.984;2023-06-14T15:00:03;5.15;;;4.68;;
12912;SDS011;6524;51.368;11.984;2023-06-14T15:05:15;4.78;;;4.38;;
12912;SDS011;6524;51.368;11.984;2023-06-14T15:10:27;5.20;;;4.60;;
12912;SDS011;6524;51.368;11.984;2023-06-14T15:15:42;4.75;;;4.35;;
12912;SDS011;6524;51.368;11.984;2023-06-14T15:20:43;5.43;;;4.18;;
12912;SDS011;6524;51.368;11.984;2023-06-14T15:25:44;4.60;;;4.20;;
12912;SDS011;6524;51.368;11.984;2023-06-14T15:31:12;4.40;;;4.00;;
12912;SDS011;6524;51.368;11.984;2023-06-14T15:36:14;4.90;;;4.50;;
12912;SDS011;6524;51.368;11.984;2023-06-14T15:41:17;4.53;;;4.13;;
12912;SDS011;6524;51.368;11.984;2023-06-14T15:46:19;4.80;;;4.40;;
12912;SDS011;6524;51.368;11.984;2023-06-14T16:17:28;5.65;;;4.03;;
12912;SDS011;6524;51.368;11.984;2023-06-14T16:22:28;4.05;;;3.60;;
12912;SDS011;6524;51.368;11.984;2023-06-14T16:27:29;3.90;;;3.60;;
12912;SDS011;6524;51.368;11.984;2023-06-14T16:32:31;4.03;;;3.63;;
12912;SDS011;6524;51.368;11.984;2023-06-14T16:37:33;3.97;;;3.60;;
12912;SDS011;6524;51.368;11.984;2023-06-14T16:42:34;5.43;;;3.85;;
12912;SDS011;6524;51.368;11.984;2023-06-14T16:47:34;5.07;;;3.70;;
12912;SDS011;6524;51.368;11.984;2023-06-14T16:52:35;4.50;;;4.10;;
12912;SDS011;6524;51.368;11.984;2023-06-14T16:57:37;4.75;;;3.90;;
12912;SDS011;6524;51.368;11.984;2023-06-14T17:02:38;4.32;;;3.92;;
12912;SDS011;6524;51.368;11.984;2023-06-14T17:07:39;4.72;;;3.97;;
12912;SDS011;6524;51.368;11.984;2023-06-14T17:12:39;4.20;;;3.65;;
12912;SDS011;6524;51.368;11.984;2023-06-14T17:17:41;4.90;;;4.03;;
12912;SDS011;6524;51.368;11.984;2023-06-14T17:22:41;5.90;;;3.95;;
12912;SDS011;6524;51.368;11.984;2023-06-14T17:27:42;4.13;;;3.70;;
12912;SDS011;6524;51.368;11.984;2023-06-14T17:32:42;6.47;;;3.92;;
12912;SDS011;6524;51.368;11.984;2023-06-14T17:37:43;7.22;;;4.28;;
12912;SDS011;6524;51.368;11.984;2023-06-14T17:42:43;4.43;;;4.03;;
12912;SDS011;6524;51.368;11.984;2023-06-14T17:47:44;5.30;;;4.00;;
12912;SDS011;6524;51.368;11.984;2023-06-14T17:52:44;4.85;;;3.90;;
12912;SDS011;6524;51.368;11.984;2023-06-14T17:57:45;4.07;;;3.67;;
12912;SDS011;6524;51.368;11.984;2023-06-14T18:02:45;5.55;;;4.20;;
12912;SDS011;6524;51.368;11.984;2023-06-14T18:07:48;4.38;;;3.97;;
12912;SDS011;6524;51.368;11.984;2023-06-14T18:12:48;4.15;;;3.72;;
12912;SDS011;6524;51.368;11.984;2023-06-14T18:17:49;4.68;;;3.90;;
12912;SDS011;6524;51.368;11.984;2023-06-14T18:22:50;5.53;;;4.40;;
12912;SDS011;6524;51.368;11.984;2023-06-14T18:27:51;4.80;;;3.95;;
12912;SDS011;6524;51.368;11.984;2023-06-14T18:32:51;4.55;;;4.15;;
12912;SDS011;6524;51.368;11.984;2023-06-14T18:37:52;4.32;;;3.92;;
12912;SDS011;6524;51.368;11.984;2023-06-14T18:42:53;4.53;;;4.13;;
12912;SDS011;6524;51.368;11.984;2023-06-14T18:47:54;6.20;;;4.20;;
12912;SDS011;6524;51.368;11.984;2023-06-14T18:52:54;4.45;;;3.72;;
12912;SDS011;6524;51.368;11.984;2023-06-14T18:57:57;4.90;;;4.28;;
12912;SDS011;6524;51.368;11.984;2023-06-14T19:02:58;4.13;;;3.75;;
12912;SDS011;6524;51.368;11.984;2023-06-14T19:07:59;4.40;;;4.00;;
12912;SDS011;6524;51.368;11.984;2023-06-14T19:13:01;4.90;;;3.72;;
12912;SDS011;6524;51.368;11.984;2023-06-14T19:18:02;4.20;;;3.80;;
12912;SDS011;6524;51.368;11.984;2023-06-14T19:23:05;6.88;;;4.30;;
12912;SDS011;6524;51.368;11.984;2023-06-14T19:28:05;4.90;;;4.18;;
12912;SDS011;6524;51.368;11.984;2023-06-14T19:33:06;4.97;;;4.10;;
12912;SDS011;6524;51.368;11.984;2023-06-14T19:38:07;4.53;;;4.13;;
12912;SDS011;6524;51.368;11.984;2023-06-14T19:43:07;4.43;;;3.90;;
12912;SDS011;6524;51.368;11.984;2023-06-14T19:48:08;5.65;;;4.57;;
12912;SDS011;6524;51.368;11.984;2023-06-14T19:53:09;5.32;;;4.30;;
12912;SDS011;6524;51.368;11.984;2023-06-14T19:58:10;6.97;;;6.18;;
12912;SDS011;6524;51.368;11.984;2023-06-14T20:03:10;6.40;;;5.43;;
12912;SDS011;6524;51.368;11.984;2023-06-14T20:08:12;7.45;;;5.53;;
12912;SDS011;6524;51.368;11.984;2023-06-14T20:13:13;6.60;;;5.95;;
12912;SDS011;6524;51.368;11.984;2023-06-14T20:18:14;6.80;;;6.05;;
12912;SDS011;6524;51.368;11.984;2023-06-14T20:23:14;7.47;;;6.45;;
12912;SDS011;6524;51.368;11.984;2023-06-14T20:28:15;8.32;;;6.78;;
12912;SDS011;6524;51.368;11.984;2023-06-14T20:33:15;7.75;;;6.80;;
12912;SDS011;6524;51.368;11.984;2023-06-14T20:38:16;7.25;;;6.55;;
12912;SDS011;6524;51.368;11.984;2023-06-14T20:43:18;7.10;;;6.47;;
12912;SDS011;6524;51.368;11.984;2023-06-14T20:48:18;6.95;;;6.00;;
12912;SDS011;6524;51.368;11.984;2023-06-14T20:53:19;6.55;;;5.95;;
12912;SDS011;6524;51.368;11.984;2023-06-14T20:58:20;7.50;;;5.65;;
12912;SDS011;6524;51.368;11.984;2023-06-14T21:03:20;7.80;;;5.50;;
12912;SDS011;6524;51.368;11.984;2023-06-14T21:08:24;7.18;;;5.70;;
12912;SDS011;6524;51.368;11.984;2023-06-14T21:13:25;5.45;;;4.95;;
12912;SDS011;6524;51.368;11.984;2023-06-14T21:18:25;6.03;;;5.43;;
12912;SDS011;6524;51.368;11.984;2023-06-14T21:23:26;7.28;;;6.32;;
12912;SDS011;6524;51.368;11.984;2023-06-14T21:28:26;6.05;;;5.50;;
12912;SDS011;6524;51.368;11.984;2023-06-14T21:33:27;5.47;;;4.97;;
12912;SDS011;6524;51.368;11.984;2023-06-14T21:38:27;6.68;;;5.18;;
12912;SDS011;6524;51.368;11.984;2023-06-14T21:43:29;6.20;;;5.60;;
12912;SDS011;6524;51.368;11.984;2023-06-14T21:48:30;5.25;;;4.85;;
12912;SDS011;6524;51.368;11.984;2023-06-14T21:53:30;5.63;;;5.05;;
12912;SDS011;6524;51.368;11.984;2023-06-14T21:58:32;6.35;;;4.78;;
12912;SDS011;6524;51.368;11.984;2023-06-14T22:03:32;6.45;;;5.53;;
12912;SDS011;6524;51.368;11.984;2023-06-14T22:08:33;7.03;;;5.70;;
12912;SDS011;6524;51.368;11.984;2023-06-14T22:13:34;5.05;;;4.55;;
12912;SDS011;6524;51.368;11.984;2023-06-14T22:18:35;5.20;;;4.70;;
12912;SDS011;6524;51.368;11.984;2023-06-14T22:23:36;5.72;;;5.13;;
12912;SDS011;6524;51.368;11.984;2023-06-14T22:28:36;6.22;;;5.03;;
12912;SDS011;6524;51.368;11.984;2023-06-14T22:33:43;5.28;;;4.82;;
12912;SDS011;6524;51.368;11.984;2023-06-14T22:38:45;6.93;;;5.32;;
12912;SDS011;6524;51.368;11.984;2023-06-14T22:43:47;5.68;;;5.18;;
12912;SDS011;6524;51.368;11.984;2023-06-14T22:48:48;5.63;;;5.07;;
12912;SDS011;6524;51.368;11.984;2023-06-14T22:53:52;5.85;;;4.90;;
12912;SDS011;6524;51.368;11.984;2023-06-14T22:58:53;6.15;;;5.30;;
12912;SDS011;6524;51.368;11.984;2023-06-14T23:03:54;6.65;;;5.13;;
12912;SDS011;6524;51.368;11.984;2023-06-14T23:08:55;5.65;;;4.70;;
12912;SDS011;6524;51.368;11.984;2023-06-14T23:14:00;5.07;;;4.53;;
12912;SDS011;6524;51.368;11.984;2023-06-14T23:19:00;5.80;;;5.10;;
12912;SDS011;6524;51.368;11.984;2023-06-14T23:24:00;5.37;;;4.87;;
12912;SDS011;6524;51.368;11.984;2023-06-14T23:29:02;6.10;;;5.25;;
12912;SDS011;6524;51.368;11.984;2023-06-14T23:34:04;5.35;;;4.95;;
12912;SDS011;6524;51.368;11.984;2023-06-14T23:39:04;5.35;;;4.70;;
12912;SDS011;6524;51.368;11.984;2023-06-14T23:44:05;5.63;;;4.90;;
12912;SDS011;6524;51.368;11.984;2023-06-14T23:49:06;6.30;;;5.70;;
12912;SDS011;6524;51.368;11.984;2023-06-14T23:54:07;6.05;;;5.45;;
12912;SDS011;6524;51.368;11.984;2023-06-14T23:59:09;7.47;;;5.55;;
